sensor_id;sensor_type;location;lat;lon;timestamp;temperature;humidity
23669;DHT22;12011;47.422;15.018;2023-10-09T00:00:17;12.60;99.90
23669;DHT22;12011;47.422;15.018;2023-10-09T00:03:12;12.60;99.90
23669;DHT22;12011;47.422;15.018;2023-10-09T00:05:44;12.60;99.90
23669;DHT22;12011;47.422;15.018;2023-10-09T00:08:22;12.50;99.90
23669;DHT22;12011;47.422;15.018;2023-10-09T00:11:02;12.50;99.90
23669;DHT22;12011;47.422;15.018;2023-10-09T00:13:46;12.50;99.90
23669;DHT22;12011;47.422;15.018;2023-10-09T00:16:26;12.40;99.90
23669;DHT22;12011;47.422;15.018;2023-10-09T00:19:05;12.40;99.90
23669;DHT22;12011;47.422;15.018;2023-10-09T00:21:45;12.40;99.90
23669;DHT22;12011;47.422;15.018;2023-10-09T00:24:24;12.30;99.90
23669;DHT22;12011;47.422;15.018;2023-10-09T00:26:57;12.30;99.90
23669;DHT22;12011;47.422;15.018;2023-10-09T00:29:40;12.40;99.90
23669;DHT22;12011;47.422;15.018;2023-10-09T00:32:13;12.30;99.90
23669;DHT22;12011;47.422;15.018;2023-10-09T00:34:52;12.30;99.90
23669;DHT22;12011;47.422;15.018;2023-10-09T00:37:28;12.20;99.90
23669;DHT22;12011;47.422;15.018;2023-10-09T00:40:10;12.20;99.90
23669;DHT22;12011;47.422;15.018;2023-10-09T00:42:50;12.20;99.90
23669;DHT22;12011;47.422;15.018;2023-10-09T00:45:24;12.20;99.90
23669;DHT22;12011;47.422;15.018;2023-10-09T00:48:05;12.20;99.90
23669;DHT22;12011;47.422;15.018;2023-10-09T01:06:58;12.00;99.90
23669;DHT22;12011;47.422;15.018;2023-10-09T01:09:55;11.80;99.90
23669;DHT22;12011;47.422;15.018;2023-10-09T01:12:52;11.80;99.90
23669;DHT22;12011;47.422;15.018;2023-10-09T01:21:54;11.80;99.90
23669;DHT22;12011;47.422;15.018;2023-10-09T01:25:01;11.80;99.90
23669;DHT22;12011;47.422;15.018;2023-10-09T01:28:18;11.80;99.90
23669;DHT22;12011;47.422;15.018;2023-10-09T01:34:07;11.80;99.90
23669;DHT22;12011;47.422;15.018;2023-10-09T01:37:07;11.80;99.90
23669;DHT22;12011;47.422;15.018;2023-10-09T01:40:08;11.80;99.90
23669;DHT22;12011;47.422;15.018;2023-10-09T01:43:25;11.60;99.90
23669;DHT22;12011;47.422;15.018;2023-10-09T01:46:27;11.60;99.90
23669;DHT22;12011;47.422;15.018;2023-10-09T01:49:11;11.50;99.90
23669;DHT22;12011;47.422;15.018;2023-10-09T01:52:15;11.50;99.90
23669;DHT22;12011;47.422;15.018;2023-10-09T01:54:59;11.50;99.90
23669;DHT22;12011;47.422;15.018;2023-10-09T02:01:24;11.20;99.90
23669;DHT22;12011;47.422;15.018;2023-10-09T02:04:06;11.10;99.90
23669;DHT22;12011;47.422;15.018;2023-10-09T02:09:50;11.00;99.90
23669;DHT22;12011;47.422;15.018;2023-10-09T02:12:44;11.00;99.90
23669;DHT22;12011;47.422;15.018;2023-10-09T02:15:42;10.80;99.90
23669;DHT22;12011;47.422;15.018;2023-10-09T02:19:01;10.80;99.90
23669;DHT22;12011;47.422;15.018;2023-10-09T02:22:16;10.70;99.90
23669;DHT22;12011;47.422;15.018;2023-10-09T02:25:14;11.10;99.90
23669;DHT22;12011;47.422;15.018;2023-10-09T02:28:09;10.70;99.90
23669;DHT22;12011;47.422;15.018;2023-10-09T02:31:12;10.60;99.90
23669;DHT22;12011;47.422;15.018;2023-10-09T02:37:19;10.50;99.90
23669;DHT22;12011;47.422;15.018;2023-10-09T02:40:29;11.20;99.90
23669;DHT22;12011;47.422;15.018;2023-10-09T02:46:54;10.30;99.90
23669;DHT22;12011;47.422;15.018;2023-10-09T02:53:08;10.20;99.90
23669;DHT22;12011;47.422;15.018;2023-10-09T02:55:58;10.20;99.90
23669;DHT22;12011;47.422;15.018;2023-10-09T02:58:40;10.10;99.90
23669;DHT22;12011;47.422;15.018;2023-10-09T03:01:16;10.10;99.90
23669;DHT22;12011;47.422;15.018;2023-10-09T03:03:46;10.00;99.90
23669;DHT22;12011;47.422;15.018;2023-10-09T03:06:16;9.90;99.90
23669;DHT22;12011;47.422;15.018;2023-10-09T03:08:55;9.90;99.90
23669;DHT22;12011;47.422;15.018;2023-10-09T03:11:25;9.60;99.90
23669;DHT22;12011;47.422;15.018;2023-10-09T03:13:59;9.60;99.90
23669;DHT22;12011;47.422;15.018;2023-10-09T03:16:30;9.50;99.90
23669;DHT22;12011;47.422;15.018;2023-10-09T03:19:00;9.40;99.90
23669;DHT22;12011;47.422;15.018;2023-10-09T03:21:34;9.30;99.90
23669;DHT22;12011;47.422;15.018;2023-10-09T03:24:08;9.30;99.90
23669;DHT22;12011;47.422;15.018;2023-10-09T03:26:40;9.30;99.90
23669;DHT22;12011;47.422;15.018;2023-10-09T03:29:13;9.30;99.90
23669;DHT22;12011;47.422;15.018;2023-10-09T03:31:47;9.30;99.90
23669;DHT22;12011;47.422;15.018;2023-10-09T03:34:20;9.30;99.90
23669;DHT22;12011;47.422;15.018;2023-10-09T03:36:55;8.80;99.90
23669;DHT22;12011;47.422;15.018;2023-10-09T03:39:34;9.10;99.90
23669;DHT22;12011;47.422;15.018;2023-10-09T03:42:07;9.10;99.90
23669;DHT22;12011;47.422;15.018;2023-10-09T03:44:47;9.10;99.90
23669;DHT22;12011;47.422;15.018;2023-10-09T03:47:28;9.20;99.90
23669;DHT22;12011;47.422;15.018;2023-10-09T03:50:00;9.10;99.90
23669;DHT22;12011;47.422;15.018;2023-10-09T03:52:53;9.10;99.90
23669;DHT22;12011;47.422;15.018;2023-10-09T03:55:26;9.10;99.90
23669;DHT22;12011;47.422;15.018;2023-10-09T03:57:57;9.10;99.90
23669;DHT22;12011;47.422;15.018;2023-10-09T04:00:32;9.00;99.90
23669;DHT22;12011;47.422;15.018;2023-10-09T04:03:15;8.90;99.90
23669;DHT22;12011;47.422;15.018;2023-10-09T04:05:47;8.80;99.90
23669;DHT22;12011;47.422;15.018;2023-10-09T04:08:20;8.90;99.90
23669;DHT22;12011;47.422;15.018;2023-10-09T04:10:59;8.90;99.90
23669;DHT22;12011;47.422;15.018;2023-10-09T04:13:44;8.80;99.90
23669;DHT22;12011;47.422;15.018;2023-10-09T04:16:16;8.80;99.90
23669;DHT22;12011;47.422;15.018;2023-10-09T04:19:20;8.70;99.90
23669;DHT22;12011;47.422;15.018;2023-10-09T04:21:51;8.70;99.90
23669;DHT22;12011;47.422;15.018;2023-10-09T04:24:22;8.70;99.90
23669;DHT22;12011;47.422;15.018;2023-10-09T04:26:56;8.50;99.90
23669;DHT22;12011;47.422;15.018;2023-10-09T04:29:28;8.50;99.90
23669;DHT22;12011;47.422;15.018;2023-10-09T04:32:12;8.60;99.90
23669;DHT22;12011;47.422;15.018;2023-10-09T04:34:52;8.70;99.90
23669;DHT22;12011;47.422;15.018;2023-10-09T04:37:43;8.70;99.90
23669;DHT22;12011;47.422;15.018;2023-10-09T04:40:18;8.70;99.90
23669;DHT22;12011;47.422;15.018;2023-10-09T04:43:10;8.70;99.90
23669;DHT22;12011;47.422;15.018;2023-10-09T04:45:46;8.70;99.90
23669;DHT22;12011;47.422;15.018;2023-10-09T04:48:37;8.80;99.90
23669;DHT22;12011;47.422;15.018;2023-10-09T04:51:15;8.80;99.90
23669;DHT22;12011;47.422;15.018;2023-10-09T04:53:48;8.70;99.90
23669;DHT22;12011;47.422;15.018;2023-10-09T04:56:26;8.80;99.90
23669;DHT22;12011;47.422;15.018;2023-10-09T04:59:01;8.80;99.90
23669;DHT22;12011;47.422;15.018;2023-10-09T05:01:34;8.80;99.90
23669;DHT22;12011;47.422;15.018;2023-10-09T05:04:11;8.70;99.90
23669;DHT22;12011;47.422;15.018;2023-10-09T05:06:54;8.80;99.90
23669;DHT22;12011;47.422;15.018;2023-10-09T05:09:24;8.90;99.90
23669;DHT22;12011;47.422;15.018;2023-10-09T05:11:54;8.90;99.90
23669;DHT22;12011;47.422;15.018;2023-10-09T05:14:38;8.90;99.90
23669;DHT22;12011;47.422;15.018;2023-10-09T05:17:08;9.00;99.90
23669;DHT22;12011;47.422;15.018;2023-10-09T05:19:42;8.90;99.90
23669;DHT22;12011;47.422;15.018;2023-10-09T05:22:21;8.90;99.90
23669;DHT22;12011;47.422;15.018;2023-10-09T05:25:05;8.90;99.90
23669;DHT22;12011;47.422;15.018;2023-10-09T05:28:04;8.90;99.90
23669;DHT22;12011;47.422;15.018;2023-10-09T05:30:54;9.00;99.90
23669;DHT22;12011;47.422;15.018;2023-10-09T05:33:33;8.90;99.90
23669;DHT22;12011;47.422;15.018;2023-10-09T05:36:04;8.90;99.90
23669;DHT22;12011;47.422;15.018;2023-10-09T05:38:57;9.00;99.90
23669;DHT22;12011;47.422;15.018;2023-10-09T05:41:43;9.10;99.90
23669;DHT22;12011;47.422;15.018;2023-10-09T05:44:19;9.20;99.90
23669;DHT22;12011;47.422;15.018;2023-10-09T05:47:04;9.30;99.90
23669;DHT22;12011;47.422;15.018;2023-10-09T05:49:46;9.30;99.90
23669;DHT22;12011;47.422;15.018;2023-10-09T05:52:22;9.30;99.90
23669;DHT22;12011;47.422;15.018;2023-10-09T05:55:10;9.40;99.90
23669;DHT22;12011;47.422;15.018;2023-10-09T05:57:51;9.40;99.90
23669;DHT22;12011;47.422;15.018;2023-10-09T06:00:33;9.50;99.90
23669;DHT22;12011;47.422;15.018;2023-10-09T06:03:18;9.60;99.90
23669;DHT22;12011;47.422;15.018;2023-10-09T06:06:14;9.60;99.90
23669;DHT22;12011;47.422;15.018;2023-10-09T06:09:00;9.70;99.90
23669;DHT22;12011;47.422;15.018;2023-10-09T06:12:00;9.70;99.90
23669;DHT22;12011;47.422;15.018;2023-10-09T06:14:41;9.60;99.90
23669;DHT22;12011;47.422;15.018;2023-10-09T06:17:45;9.80;99.90
23669;DHT22;12011;47.422;15.018;2023-10-09T06:20:19;9.90;99.90
23669;DHT22;12011;47.422;15.018;2023-10-09T06:23:08;9.80;99.90
23669;DHT22;12011;47.422;15.018;2023-10-09T06:25:49;9.90;99.90
23669;DHT22;12011;47.422;15.018;2023-10-09T06:28:29;10.20;99.90
23669;DHT22;12011;47.422;15.018;2023-10-09T06:31:01;10.50;99.90
23669;DHT22;12011;47.422;15.018;2023-10-09T06:33:51;10.50;99.90
23669;DHT22;12011;47.422;15.018;2023-10-09T06:36:36;10.60;99.90
23669;DHT22;12011;47.422;15.018;2023-10-09T06:39:19;10.50;99.90
23669;DHT22;12011;47.422;15.018;2023-10-09T06:42:00;10.80;99.90
23669;DHT22;12011;47.422;15.018;2023-10-09T06:44:59;11.40;99.90
23669;DHT22;12011;47.422;15.018;2023-10-09T06:47:30;11.70;99.90
23669;DHT22;12011;47.422;15.018;2023-10-09T06:50:08;11.80;99.90
23669;DHT22;12011;47.422;15.018;2023-10-09T06:52:53;12.40;99.90
23669;DHT22;12011;47.422;15.018;2023-10-09T06:55:36;14.10;99.90
23669;DHT22;12011;47.422;15.018;2023-10-09T06:58:14;14.80;99.90
23669;DHT22;12011;47.422;15.018;2023-10-09T07:00:49;16.50;97.70
23669;DHT22;12011;47.422;15.018;2023-10-09T07:03:43;17.50;85.60
23669;DHT22;12011;47.422;15.018;2023-10-09T07:06:19;18.50;78.50
23669;DHT22;12011;47.422;15.018;2023-10-09T07:09:10;19.00;72.70
23669;DHT22;12011;47.422;15.018;2023-10-09T07:11:47;17.90;75.60
23669;DHT22;12011;47.422;15.018;2023-10-09T07:14:26;17.20;85.60
23669;DHT22;12011;47.422;15.018;2023-10-09T07:17:14;16.50;90.10
23669;DHT22;12011;47.422;15.018;2023-10-09T07:19:53;16.10;91.30
23669;DHT22;12011;47.422;15.018;2023-10-09T07:22:36;16.60;92.10
23669;DHT22;12011;47.422;15.018;2023-10-09T07:25:24;16.90;88.40
23669;DHT22;12011;47.422;15.018;2023-10-09T07:28:09;17.00;90.70
23669;DHT22;12011;47.422;15.018;2023-10-09T07:30:56;16.80;87.00
23669;DHT22;12011;47.422;15.018;2023-10-09T07:33:29;17.20;90.30
23669;DHT22;12011;47.422;15.018;2023-10-09T07:36:18;17.30;87.50
23669;DHT22;12011;47.422;15.018;2023-10-09T07:39:01;17.60;87.20
23669;DHT22;12011;47.422;15.018;2023-10-09T07:41:42;17.20;87.10
23669;DHT22;12011;47.422;15.018;2023-10-09T07:44:23;17.30;87.60
23669;DHT22;12011;47.422;15.018;2023-10-09T07:47:05;16.90;84.80
23669;DHT22;12011;47.422;15.018;2023-10-09T07:49:49;16.70;88.20
23669;DHT22;12011;47.422;15.018;2023-10-09T07:52:21;16.50;91.10
23669;DHT22;12011;47.422;15.018;2023-10-09T07:54:52;16.30;91.70
23669;DHT22;12011;47.422;15.018;2023-10-09T07:57:35;16.00;94.20
23669;DHT22;12011;47.422;15.018;2023-10-09T08:00:09;16.00;98.50
23669;DHT22;12011;47.422;15.018;2023-10-09T08:02:54;16.00;97.70
23669;DHT22;12011;47.422;15.018;2023-10-09T08:05:26;16.00;94.70
23669;DHT22;12011;47.422;15.018;2023-10-09T08:08:00;15.70;98.20
23669;DHT22;12011;47.422;15.018;2023-10-09T08:10:46;16.00;96.80
23669;DHT22;12011;47.422;15.018;2023-10-09T08:13:43;16.00;98.90
23669;DHT22;12011;47.422;15.018;2023-10-09T08:16:24;16.60;94.70
23669;DHT22;12011;47.422;15.018;2023-10-09T08:19:03;16.80;96.50
23669;DHT22;12011;47.422;15.018;2023-10-09T08:21:57;16.70;93.30
23669;DHT22;12011;47.422;15.018;2023-10-09T08:24:39;16.50;91.60
23669;DHT22;12011;47.422;15.018;2023-10-09T08:27:18;15.90;93.60
23669;DHT22;12011;47.422;15.018;2023-10-09T08:30:15;16.00;97.60
23669;DHT22;12011;47.422;15.018;2023-10-09T08:33:07;15.90;99.90
23669;DHT22;12011;47.422;15.018;2023-10-09T08:35:49;15.80;99.90
23669;DHT22;12011;47.422;15.018;2023-10-09T08:38:22;15.90;99.90
23669;DHT22;12011;47.422;15.018;2023-10-09T08:40:54;16.00;98.60
23669;DHT22;12011;47.422;15.018;2023-10-09T08:43:24;16.90;99.40
23669;DHT22;12011;47.422;15.018;2023-10-09T08:46:00;18.40;92.30
23669;DHT22;12011;47.422;15.018;2023-10-09T08:48:31;19.60;78.90
23669;DHT22;12011;47.422;15.018;2023-10-09T08:51:03;19.90;68.90
23669;DHT22;12011;47.422;15.018;2023-10-09T08:53:35;19.20;65.90
23669;DHT22;12011;47.422;15.018;2023-10-09T08:56:09;18.90;76.00
23669;DHT22;12011;47.422;15.018;2023-10-09T08:58:41;18.30;83.30
23669;DHT22;12011;47.422;15.018;2023-10-09T09:01:16;18.30;90.40
23669;DHT22;12011;47.422;15.018;2023-10-09T09:03:48;18.20;91.30
23669;DHT22;12011;47.422;15.018;2023-10-09T09:06:22;20.20;68.70
23669;DHT22;12011;47.422;15.018;2023-10-09T09:08:53;21.50;63.20
23669;DHT22;12011;47.422;15.018;2023-10-09T09:11:26;22.20;57.30
23669;DHT22;12011;47.422;15.018;2023-10-09T09:14:04;22.80;56.50
23669;DHT22;12011;47.422;15.018;2023-10-09T09:16:47;23.80;57.30
23669;DHT22;12011;47.422;15.018;2023-10-09T09:19:18;23.90;51.90
23669;DHT22;12011;47.422;15.018;2023-10-09T09:21:49;23.50;50.20
23669;DHT22;12011;47.422;15.018;2023-10-09T09:24:23;22.10;54.30
23669;DHT22;12011;47.422;15.018;2023-10-09T09:27:01;21.70;55.30
23669;DHT22;12011;47.422;15.018;2023-10-09T09:29:44;21.90;53.10
23669;DHT22;12011;47.422;15.018;2023-10-09T09:32:27;22.50;56.50
23669;DHT22;12011;47.422;15.018;2023-10-09T09:35:12;23.40;49.40
23669;DHT22;12011;47.422;15.018;2023-10-09T09:37:52;23.90;49.30
23669;DHT22;12011;47.422;15.018;2023-10-09T09:40:31;24.60;51.20
23669;DHT22;12011;47.422;15.018;2023-10-09T09:43:09;25.20;48.30
23669;DHT22;12011;47.422;15.018;2023-10-09T09:45:48;25.60;49.40
23669;DHT22;12011;47.422;15.018;2023-10-09T09:48:22;25.60;47.40
23669;DHT22;12011;47.422;15.018;2023-10-09T09:50:52;25.10;44.40
23669;DHT22;12011;47.422;15.018;2023-10-09T09:53:22;23.60;47.90
23669;DHT22;12011;47.422;15.018;2023-10-09T09:55:54;22.90;51.80
23669;DHT22;12011;47.422;15.018;2023-10-09T09:58:27;23.40;54.40
23669;DHT22;12011;47.422;15.018;2023-10-09T10:01:03;24.00;51.60
23669;DHT22;12011;47.422;15.018;2023-10-09T10:03:49;24.30;50.30
23669;DHT22;12011;47.422;15.018;2023-10-09T10:06:24;24.80;49.70
23669;DHT22;12011;47.422;15.018;2023-10-09T10:08:55;25.80;50.10
23669;DHT22;12011;47.422;15.018;2023-10-09T10:11:43;26.80;48.60
23669;DHT22;12011;47.422;15.018;2023-10-09T10:14:18;26.70;44.60
23669;DHT22;12011;47.422;15.018;2023-10-09T10:17:02;26.60;48.00
23669;DHT22;12011;47.422;15.018;2023-10-09T10:20:02;25.90;46.50
23669;DHT22;12011;47.422;15.018;2023-10-09T10:22:47;26.20;49.00
23669;DHT22;12011;47.422;15.018;2023-10-09T10:25:32;26.70;44.00
23669;DHT22;12011;47.422;15.018;2023-10-09T10:28:21;26.70;46.20
23669;DHT22;12011;47.422;15.018;2023-10-09T10:31:04;26.40;45.20
23669;DHT22;12011;47.422;15.018;2023-10-09T10:34:03;26.40;44.10
23669;DHT22;12011;47.422;15.018;2023-10-09T10:36:39;25.40;45.70
23669;DHT22;12011;47.422;15.018;2023-10-09T10:39:11;24.80;48.00
23669;DHT22;12011;47.422;15.018;2023-10-09T10:41:54;24.10;49.00
23669;DHT22;12011;47.422;15.018;2023-10-09T10:44:29;23.20;55.70
23669;DHT22;12011;47.422;15.018;2023-10-09T10:47:03;22.90;59.70
23669;DHT22;12011;47.422;15.018;2023-10-09T10:49:49;23.30;56.20
23669;DHT22;12011;47.422;15.018;2023-10-09T10:52:29;23.30;56.00
23669;DHT22;12011;47.422;15.018;2023-10-09T10:55:09;22.50;60.40
23669;DHT22;12011;47.422;15.018;2023-10-09T10:58:17;22.40;64.60
23669;DHT22;12011;47.422;15.018;2023-10-09T11:00:56;22.80;59.30
23669;DHT22;12011;47.422;15.018;2023-10-09T11:03:42;23.90;69.20
23669;DHT22;12011;47.422;15.018;2023-10-09T11:06:25;24.30;53.60
23669;DHT22;12011;47.422;15.018;2023-10-09T11:09:06;24.50;50.70
23669;DHT22;12011;47.422;15.018;2023-10-09T11:11:48;24.60;56.40
23669;DHT22;12011;47.422;15.018;2023-10-09T11:14:21;24.70;48.80
23669;DHT22;12011;47.422;15.018;2023-10-09T11:16:52;25.20;51.60
23669;DHT22;12011;47.422;15.018;2023-10-09T11:19:29;25.00;52.20
23669;DHT22;12011;47.422;15.018;2023-10-09T11:22:06;24.90;50.20
23669;DHT22;12011;47.422;15.018;2023-10-09T11:24:51;24.30;53.30
23669;DHT22;12011;47.422;15.018;2023-10-09T11:27:40;24.60;52.10
23669;DHT22;12011;47.422;15.018;2023-10-09T11:30:16;25.00;42.40
23669;DHT22;12011;47.422;15.018;2023-10-09T11:33:07;25.30;44.90
23669;DHT22;12011;47.422;15.018;2023-10-09T11:35:40;25.30;47.00
23669;DHT22;12011;47.422;15.018;2023-10-09T11:38:11;24.50;38.10
23669;DHT22;12011;47.422;15.018;2023-10-09T11:40:50;24.50;44.10
23669;DHT22;12011;47.422;15.018;2023-10-09T11:43:51;24.20;43.90
23669;DHT22;12011;47.422;15.018;2023-10-09T11:46:23;24.00;40.50
23669;DHT22;12011;47.422;15.018;2023-10-09T11:49:17;24.00;39.30
23669;DHT22;12011;47.422;15.018;2023-10-09T11:52:07;24.50;38.60
23669;DHT22;12011;47.422;15.018;2023-10-09T11:54:52;24.50;39.40
23669;DHT22;12011;47.422;15.018;2023-10-09T11:57:29;24.40;36.90
23669;DHT22;12011;47.422;15.018;2023-10-09T12:00:05;24.30;36.40
23669;DHT22;12011;47.422;15.018;2023-10-09T12:02:50;24.40;36.20
23669;DHT22;12011;47.422;15.018;2023-10-09T12:05:20;24.30;35.10
23669;DHT22;12011;47.422;15.018;2023-10-09T12:07:54;23.90;37.10
23669;DHT22;12011;47.422;15.018;2023-10-09T12:10:25;23.70;36.10
23669;DHT22;12011;47.422;15.018;2023-10-09T12:12:58;23.90;37.40
23669;DHT22;12011;47.422;15.018;2023-10-09T12:15:31;24.00;39.60
23669;DHT22;12011;47.422;15.018;2023-10-09T12:18:09;23.60;38.00
23669;DHT22;12011;47.422;15.018;2023-10-09T12:20:42;23.40;38.40
23669;DHT22;12011;47.422;15.018;2023-10-09T12:23:18;23.30;38.00
23669;DHT22;12011;47.422;15.018;2023-10-09T12:25:49;23.10;39.60
23669;DHT22;12011;47.422;15.018;2023-10-09T12:28:25;22.90;39.40
23669;DHT22;12011;47.422;15.018;2023-10-09T12:30:56;23.10;37.80
23669;DHT22;12011;47.422;15.018;2023-10-09T12:33:32;23.00;37.70
23669;DHT22;12011;47.422;15.018;2023-10-09T12:36:06;22.90;37.30
23669;DHT22;12011;47.422;15.018;2023-10-09T12:38:44;22.90;39.30
23669;DHT22;12011;47.422;15.018;2023-10-09T12:41:17;23.00;37.70
23669;DHT22;12011;47.422;15.018;2023-10-09T12:43:55;22.80;40.00
23669;DHT22;12011;47.422;15.018;2023-10-09T12:46:25;22.70;39.90
23669;DHT22;12011;47.422;15.018;2023-10-09T12:48:58;22.70;39.30
23669;DHT22;12011;47.422;15.018;2023-10-09T12:51:28;22.60;38.80
23669;DHT22;12011;47.422;15.018;2023-10-09T12:53:58;22.50;38.00
23669;DHT22;12011;47.422;15.018;2023-10-09T12:56:28;22.40;39.80
23669;DHT22;12011;47.422;15.018;2023-10-09T12:59:07;22.30;40.50
23669;DHT22;12011;47.422;15.018;2023-10-09T13:01:41;22.40;38.20
23669;DHT22;12011;47.422;15.018;2023-10-09T13:04:19;22.30;37.80
23669;DHT22;12011;47.422;15.018;2023-10-09T13:06:58;22.40;39.20
23669;DHT22;12011;47.422;15.018;2023-10-09T13:09:30;22.30;39.10
23669;DHT22;12011;47.422;15.018;2023-10-09T13:12:08;22.30;38.00
23669;DHT22;12011;47.422;15.018;2023-10-09T13:14:46;22.20;38.20
23669;DHT22;12011;47.422;15.018;2023-10-09T13:17:16;22.20;38.10
23669;DHT22;12011;47.422;15.018;2023-10-09T13:19:47;22.10;40.00
23669;DHT22;12011;47.422;15.018;2023-10-09T13:22:17;21.90;38.70
23669;DHT22;12011;47.422;15.018;2023-10-09T13:24:49;21.90;37.50
23669;DHT22;12011;47.422;15.018;2023-10-09T13:27:29;22.00;37.50
23669;DHT22;12011;47.422;15.018;2023-10-09T13:30:03;22.00;38.00
23669;DHT22;12011;47.422;15.018;2023-10-09T13:32:35;22.10;35.50
23669;DHT22;12011;47.422;15.018;2023-10-09T13:35:06;22.00;38.10
23669;DHT22;12011;47.422;15.018;2023-10-09T13:37:40;22.00;35.70
23669;DHT22;12011;47.422;15.018;2023-10-09T13:40:10;22.00;36.80
23669;DHT22;12011;47.422;15.018;2023-10-09T13:42:54;22.00;38.10
23669;DHT22;12011;47.422;15.018;2023-10-09T13:45:29;22.00;37.20
23669;DHT22;12011;47.422;15.018;2023-10-09T13:47:59;21.90;36.90
23669;DHT22;12011;47.422;15.018;2023-10-09T13:50:30;21.90;38.00
23669;DHT22;12011;47.422;15.018;2023-10-09T13:53:03;21.80;36.70
23669;DHT22;12011;47.422;15.018;2023-10-09T13:55:37;22.00;36.30
23669;DHT22;12011;47.422;15.018;2023-10-09T13:58:09;22.10;35.60
23669;DHT22;12011;47.422;15.018;2023-10-09T14:00:49;22.20;36.70
23669;DHT22;12011;47.422;15.018;2023-10-09T14:03:19;22.30;35.80
23669;DHT22;12011;47.422;15.018;2023-10-09T14:05:50;22.30;36.80
23669;DHT22;12011;47.422;15.018;2023-10-09T14:08:36;22.60;35.40
23669;DHT22;12011;47.422;15.018;2023-10-09T14:11:08;22.80;33.50
23669;DHT22;12011;47.422;15.018;2023-10-09T14:13:39;22.80;32.10
23669;DHT22;12011;47.422;15.018;2023-10-09T14:16:12;22.50;32.50
23669;DHT22;12011;47.422;15.018;2023-10-09T14:18:58;22.40;34.00
23669;DHT22;12011;47.422;15.018;2023-10-09T14:21:33;22.40;33.30
23669;DHT22;12011;47.422;15.018;2023-10-09T14:24:19;22.50;32.80
23669;DHT22;12011;47.422;15.018;2023-10-09T14:26:52;22.50;34.00
23669;DHT22;12011;47.422;15.018;2023-10-09T14:29:23;22.30;33.60
23669;DHT22;12011;47.422;15.018;2023-10-09T14:31:55;22.30;34.20
23669;DHT22;12011;47.422;15.018;2023-10-09T14:34:29;22.10;36.00
23669;DHT22;12011;47.422;15.018;2023-10-09T14:37:02;21.90;32.70
23669;DHT22;12011;47.422;15.018;2023-10-09T14:39:33;21.90;32.10
23669;DHT22;12011;47.422;15.018;2023-10-09T14:42:10;21.80;32.70
23669;DHT22;12011;47.422;15.018;2023-10-09T14:44:43;21.70;32.40
23669;DHT22;12011;47.422;15.018;2023-10-09T14:47:16;21.70;31.60
23669;DHT22;12011;47.422;15.018;2023-10-09T14:49:52;21.70;32.80
23669;DHT22;12011;47.422;15.018;2023-10-09T14:52:37;21.70;32.40
23669;DHT22;12011;47.422;15.018;2023-10-09T14:55:08;21.60;32.80
23669;DHT22;12011;47.422;15.018;2023-10-09T14:57:38;21.50;33.60
23669;DHT22;12011;47.422;15.018;2023-10-09T15:00:09;21.50;33.70
23669;DHT22;12011;47.422;15.018;2023-10-09T15:02:44;21.30;34.50
23669;DHT22;12011;47.422;15.018;2023-10-09T15:05:14;21.30;37.70
23669;DHT22;12011;47.422;15.018;2023-10-09T15:07:44;21.30;33.70
23669;DHT22;12011;47.422;15.018;2023-10-09T15:10:14;21.30;36.10
23669;DHT22;12011;47.422;15.018;2023-10-09T15:12:44;21.30;34.60
23669;DHT22;12011;47.422;15.018;2023-10-09T15:15:16;21.30;35.90
23669;DHT22;12011;47.422;15.018;2023-10-09T15:17:54;21.40;36.00
23669;DHT22;12011;47.422;15.018;2023-10-09T15:20:23;21.20;34.40
23669;DHT22;12011;47.422;15.018;2023-10-09T15:22:53;21.20;37.80
23669;DHT22;12011;47.422;15.018;2023-10-09T15:25:22;21.00;40.60
23669;DHT22;12011;47.422;15.018;2023-10-09T15:27:52;20.50;45.90
23669;DHT22;12011;47.422;15.018;2023-10-09T15:30:23;20.40;40.40
23669;DHT22;12011;47.422;15.018;2023-10-09T15:32:56;20.50;38.40
23669;DHT22;12011;47.422;15.018;2023-10-09T15:35:27;20.10;49.10
23669;DHT22;12011;47.422;15.018;2023-10-09T15:38:00;20.00;37.90
23669;DHT22;12011;47.422;15.018;2023-10-09T15:40:30;19.70;46.20
23669;DHT22;12011;47.422;15.018;2023-10-09T15:43:01;19.60;43.80
23669;DHT22;12011;47.422;15.018;2023-10-09T15:45:32;19.40;48.10
23669;DHT22;12011;47.422;15.018;2023-10-09T15:48:13;19.10;42.50
23669;DHT22;12011;47.422;15.018;2023-10-09T15:50:47;19.30;39.50
23669;DHT22;12011;47.422;15.018;2023-10-09T15:53:18;19.40;39.30
23669;DHT22;12011;47.422;15.018;2023-10-09T15:55:48;19.40;42.00
23669;DHT22;12011;47.422;15.018;2023-10-09T15:58:23;19.80;36.30
23669;DHT22;12011;47.422;15.018;2023-10-09T16:00:55;19.90;38.40
23669;DHT22;12011;47.422;15.018;2023-10-09T16:03:28;20.00;35.50
23669;DHT22;12011;47.422;15.018;2023-10-09T16:05:58;20.10;37.60
23669;DHT22;12011;47.422;15.018;2023-10-09T16:08:28;20.00;37.50
23669;DHT22;12011;47.422;15.018;2023-10-09T16:10:57;19.90;38.40
23669;DHT22;12011;47.422;15.018;2023-10-09T16:13:27;19.80;40.40
23669;DHT22;12011;47.422;15.018;2023-10-09T16:15:58;19.70;40.20
23669;DHT22;12011;47.422;15.018;2023-10-09T16:18:34;19.50;40.80
23669;DHT22;12011;47.422;15.018;2023-10-09T16:21:05;19.50;41.40
23669;DHT22;12011;47.422;15.018;2023-10-09T16:23:38;19.50;40.70
23669;DHT22;12011;47.422;15.018;2023-10-09T16:26:08;19.70;41.30
23669;DHT22;12011;47.422;15.018;2023-10-09T16:28:38;19.50;43.80
23669;DHT22;12011;47.422;15.018;2023-10-09T16:31:09;19.50;42.80
23669;DHT22;12011;47.422;15.018;2023-10-09T16:33:43;19.40;44.60
23669;DHT22;12011;47.422;15.018;2023-10-09T16:36:15;19.30;44.50
23669;DHT22;12011;47.422;15.018;2023-10-09T16:38:44;19.30;46.00
23669;DHT22;12011;47.422;15.018;2023-10-09T16:41:14;19.20;46.00
23669;DHT22;12011;47.422;15.018;2023-10-09T16:43:44;19.10;45.60
23669;DHT22;12011;47.422;15.018;2023-10-09T16:46:13;19.00;46.60
23669;DHT22;12011;47.422;15.018;2023-10-09T16:48:45;19.10;45.90
23669;DHT22;12011;47.422;15.018;2023-10-09T16:51:18;19.10;45.50
23669;DHT22;12011;47.422;15.018;2023-10-09T16:53:48;19.10;44.80
23669;DHT22;12011;47.422;15.018;2023-10-09T16:56:19;19.10;45.10
23669;DHT22;12011;47.422;15.018;2023-10-09T16:58:50;19.00;46.80
23669;DHT22;12011;47.422;15.018;2023-10-09T17:01:21;19.00;46.10
23669;DHT22;12011;47.422;15.018;2023-10-09T17:03:56;19.00;46.10
23669;DHT22;12011;47.422;15.018;2023-10-09T17:06:29;18.90;46.30
23669;DHT22;12011;47.422;15.018;2023-10-09T17:09:00;19.00;46.30
23669;DHT22;12011;47.422;15.018;2023-10-09T17:11:32;18.90;47.40
23669;DHT22;12011;47.422;15.018;2023-10-09T17:14:02;18.90;47.50